sensor_id;sensor_type;location;lat;lon;timestamp;P1;durP1;ratioP1;P2;durP2;ratioP2
62401;SDS011;48440;51.224;22.506;2022-09-20T00:00:10;5.70;;;3.90;;
62401;SDS011;48440;51.224;22.506;2022-09-20T00:02:37;5.75;;;3.42;;
62401;SDS011;48440;51.224;22.506;2022-09-20T00:05:03;4.50;;;3.28;;
62401;SDS011;48440;51.224;22.506;2022-09-20T00:07:30;5.60;;;3.10;;
62401;SDS011;48440;51.224;22.506;2022-09-20T00:09:56;4.97;;;3.17;;
62401;SDS011;48440;51.224;22.506;2022-09-20T00:12:22;4.82;;;3.70;;
62401;SDS011;48440;51.224;22.506;2022-09-20T00:14:48;5.45;;;3.45;;
62401;SDS011;48440;51.224;22.506;2022-09-20T00:17:14;7.68;;;3.53;;
62401;SDS011;48440;51.224;22.506;2022-09-20T00:19:42;4.13;;;3.03;;
62401;SDS011;48440;51.224;22.506;2022-09-20T00:22:09;4.97;;;3.15;;
62401;SDS011;48440;51.224;22.506;2022-09-20T00:24:35;5.13;;;3.35;;
62401;SDS011;48440;51.224;22.506;2022-09-20T00:27:01;5.18;;;3.15;;
62401;SDS011;48440;51.224;22.506;2022-09-20T00:29:28;5.30;;;3.50;;
62401;SDS011;48440;51.224;22.506;2022-09-20T00:31:53;6.90;;;3.85;;
62401;SDS011;48440;51.224;22.506;2022-09-20T00:34:22;5.25;;;3.60;;
62401;SDS011;48440;51.224;22.506;2022-09-20T00:37:06;5.05;;;3.67;;
62401;SDS011;48440;51.224;22.506;2022-09-20T00:39:32;6.38;;;3.78;;
62401;SDS011;48440;51.224;22.506;2022-09-20T00:41:59;5.70;;;4.03;;
62401;SDS011;48440;51.224;22.506;2022-09-20T00:44:41;6.90;;;3.83;;
62401;SDS011;48440;51.224;22.506;2022-09-20T00:47:19;5.28;;;4.03;;
62401;SDS011;48440;51.224;22.506;2022-09-20T00:49:49;6.18;;;4.30;;
62401;SDS011;48440;51.224;22.506;2022-09-20T00:52:20;5.97;;;4.43;;
62401;SDS011;48440;51.224;22.506;2022-09-20T00:54:46;5.95;;;4.43;;
62401;SDS011;48440;51.224;22.506;2022-09-20T00:57:23;5.50;;;4.35;;
62401;SDS011;48440;51.224;22.506;2022-09-20T00:59:49;7.53;;;4.75;;
62401;SDS011;48440;51.224;22.506;2022-09-20T01:02:19;6.22;;;4.47;;
62401;SDS011;48440;51.224;22.506;2022-09-20T01:07:46;7.47;;;4.63;;
62401;SDS011;48440;51.224;22.506;2022-09-20T01:10:15;8.30;;;4.90;;
62401;SDS011;48440;51.224;22.506;2022-09-20T01:12:42;7.63;;;4.93;;
62401;SDS011;48440;51.224;22.506;2022-09-20T01:15:10;7.38;;;4.70;;
62401;SDS011;48440;51.224;22.506;2022-09-20T01:17:41;7.38;;;4.72;;
62401;SDS011;48440;51.224;22.506;2022-09-20T01:20:19;7.25;;;4.72;;
62401;SDS011;48440;51.224;22.506;2022-09-20T01:22:54;7.35;;;5.03;;
62401;SDS011;48440;51.224;22.506;2022-09-20T01:28:32;6.50;;;5.10;;
62401;SDS011;48440;51.224;22.506;2022-09-20T01:36:13;8.93;;;5.38;;
62401;SDS011;48440;51.224;22.506;2022-09-20T01:41:39;7.00;;;5.28;;
62401;SDS011;48440;51.224;22.506;2022-09-20T01:58:06;5.60;;;4.88;;
62401;SDS011;48440;51.224;22.506;2022-09-20T02:01:23;5.85;;;4.18;;
62401;SDS011;48440;51.224;22.506;2022-09-20T02:07:36;6.20;;;4.68;;
62401;SDS011;48440;51.224;22.506;2022-09-20T02:44:12;9.15;;;6.85;;
62401;SDS011;48440;51.224;22.506;2022-09-20T02:46:55;10.52;;;7.45;;
62401;SDS011;48440;51.224;22.506;2022-09-20T02:55:25;10.23;;;8.00;;
62401;SDS011;48440;51.224;22.506;2022-09-20T02:58:04;12.05;;;8.30;;
62401;SDS011;48440;51.224;22.506;2022-09-20T03:00:44;11.75;;;8.50;;
62401;SDS011;48440;51.224;22.506;2022-09-20T03:06:48;14.43;;;9.60;;
62401;SDS011;48440;51.224;22.506;2022-09-20T03:14:48;13.82;;;10.27;;
62401;SDS011;48440;51.224;22.506;2022-09-20T03:37:09;20.63;;;13.80;;
62401;SDS011;48440;51.224;22.506;2022-09-20T03:39:51;19.60;;;13.85;;
62401;SDS011;48440;51.224;22.506;2022-09-20T03:42:22;21.75;;;13.73;;
62401;SDS011;48440;51.224;22.506;2022-09-20T03:45:01;19.52;;;13.63;;
62401;SDS011;48440;51.224;22.506;2022-09-20T03:48:16;21.58;;;14.27;;
62401;SDS011;48440;51.224;22.506;2022-09-20T03:53:40;21.30;;;14.15;;
62401;SDS011;48440;51.224;22.506;2022-09-20T04:02:13;23.73;;;14.88;;
62401;SDS011;48440;51.224;22.506;2022-09-20T04:04:49;25.63;;;15.38;;
62401;SDS011;48440;51.224;22.506;2022-09-20T04:10:40;27.23;;;16.15;;
62401;SDS011;48440;51.224;22.506;2022-09-20T04:13:35;26.45;;;15.70;;
62401;SDS011;48440;51.224;22.506;2022-09-20T04:16:26;29.65;;;17.83;;
62401;SDS011;48440;51.224;22.506;2022-09-20T04:21:58;28.02;;;17.25;;
62401;SDS011;48440;51.224;22.506;2022-09-20T04:24:36;26.83;;;16.00;;
62401;SDS011;48440;51.224;22.506;2022-09-20T04:29:58;27.92;;;17.25;;
62401;SDS011;48440;51.224;22.506;2022-09-20T04:35:04;27.55;;;17.85;;
62401;SDS011;48440;51.224;22.506;2022-09-20T04:38:29;28.65;;;17.23;;
62401;SDS011;48440;51.224;22.506;2022-09-20T05:08:48;27.27;;;16.25;;
62401;SDS011;48440;51.224;22.506;2022-09-20T05:19:47;30.10;;;18.17;;
62401;SDS011;48440;51.224;22.506;2022-09-20T05:30:51;31.98;;;18.85;;
62401;SDS011;48440;51.224;22.506;2022-09-20T05:33:25;28.02;;;17.17;;
62401;SDS011;48440;51.224;22.506;2022-09-20T05:41:29;27.27;;;17.02;;
62401;SDS011;48440;51.224;22.506;2022-09-20T05:44:17;26.10;;;17.13;;
62401;SDS011;48440;51.224;22.506;2022-09-20T05:54:52;23.48;;;16.88;;
62401;SDS011;48440;51.224;22.506;2022-09-20T06:00:53;23.83;;;17.65;;
62401;SDS011;48440;51.224;22.506;2022-09-20T06:09:44;25.60;;;17.90;;
62401;SDS011;48440;51.224;22.506;2022-09-20T06:12:37;24.67;;;17.13;;
62401;SDS011;48440;51.224;22.506;2022-09-20T06:18:24;22.58;;;16.98;;
62401;SDS011;48440;51.224;22.506;2022-09-20T06:23:56;25.55;;;18.45;;
62401;SDS011;48440;51.224;22.506;2022-09-20T06:26:25;22.88;;;16.33;;
62401;SDS011;48440;51.224;22.506;2022-09-20T06:28:57;25.98;;;17.73;;
62401;SDS011;48440;51.224;22.506;2022-09-20T06:31:27;24.48;;;17.45;;
62401;SDS011;48440;51.224;22.506;2022-09-20T06:34:00;24.63;;;16.63;;
62401;SDS011;48440;51.224;22.506;2022-09-20T06:36:30;25.02;;;17.27;;
62401;SDS011;48440;51.224;22.506;2022-09-20T06:39:26;23.67;;;16.92;;
62401;SDS011;48440;51.224;22.506;2022-09-20T06:42:14;27.02;;;17.38;;
62401;SDS011;48440;51.224;22.506;2022-09-20T06:44:39;27.30;;;18.17;;
62401;SDS011;48440;51.224;22.506;2022-09-20T06:47:08;24.13;;;16.98;;
62401;SDS011;48440;51.224;22.506;2022-09-20T06:49:35;24.00;;;15.70;;
62401;SDS011;48440;51.224;22.506;2022-09-20T06:52:09;23.30;;;16.85;;
62401;SDS011;48440;51.224;22.506;2022-09-20T06:54:38;23.67;;;16.60;;
62401;SDS011;48440;51.224;22.506;2022-09-20T06:57:08;23.92;;;15.98;;
62401;SDS011;48440;51.224;22.506;2022-09-20T06:59:36;21.33;;;16.48;;
62401;SDS011;48440;51.224;22.506;2022-09-20T07:02:01;22.33;;;15.70;;
62401;SDS011;48440;51.224;22.506;2022-09-20T07:04:27;22.98;;;15.15;;
62401;SDS011;48440;51.224;22.506;2022-09-20T07:07:15;21.23;;;15.90;;
62401;SDS011;48440;51.224;22.506;2022-09-20T07:09:44;21.73;;;16.42;;
62401;SDS011;48440;51.224;22.506;2022-09-20T07:12:09;22.77;;;16.02;;
62401;SDS011;48440;51.224;22.506;2022-09-20T07:14:36;22.67;;;16.27;;
62401;SDS011;48440;51.224;22.506;2022-09-20T07:17:02;20.85;;;15.82;;
62401;SDS011;48440;51.224;22.506;2022-09-20T07:19:28;19.50;;;14.00;;
62401;SDS011;48440;51.224;22.506;2022-09-20T07:21:54;22.55;;;14.95;;
62401;SDS011;48440;51.224;22.506;2022-09-20T07:24:20;22.85;;;15.27;;
62401;SDS011;48440;51.224;22.506;2022-09-20T07:29:45;19.55;;;14.00;;
62401;SDS011;48440;51.224;22.506;2022-09-20T07:32:11;20.17;;;14.48;;
62401;SDS011;48440;51.224;22.506;2022-09-20T07:34:52;18.17;;;13.32;;
62401;SDS011;48440;51.224;22.506;2022-09-20T07:37:58;18.75;;;13.90;;
62401;SDS011;48440;51.224;22.506;2022-09-20T07:40:38;18.88;;;13.95;;
62401;SDS011;48440;51.224;22.506;2022-09-20T07:46:47;17.67;;;13.32;;
62401;SDS011;48440;51.224;22.506;2022-09-20T07:49:22;17.02;;;13.85;;
62401;SDS011;48440;51.224;22.506;2022-09-20T07:51:52;20.23;;;14.77;;
62401;SDS011;48440;51.224;22.506;2022-09-20T07:54:25;18.45;;;14.45;;
62401;SDS011;48440;51.224;22.506;2022-09-20T07:56:51;19.05;;;14.68;;
62401;SDS011;48440;51.224;22.506;2022-09-20T08:02:39;16.77;;;14.13;;
62401;SDS011;48440;51.224;22.506;2022-09-20T08:05:05;19.13;;;14.07;;
62401;SDS011;48440;51.224;22.506;2022-09-20T08:10:37;15.52;;;11.43;;
62401;SDS011;48440;51.224;22.506;2022-09-20T08:13:05;15.40;;;11.00;;
62401;SDS011;48440;51.224;22.506;2022-09-20T08:15:31;14.27;;;10.75;;
62401;SDS011;48440;51.224;22.506;2022-09-20T08:17:56;15.63;;;10.13;;
62401;SDS011;48440;51.224;22.506;2022-09-20T08:20:22;11.32;;;9.82;;
62401;SDS011;48440;51.224;22.506;2022-09-20T08:22:48;12.50;;;9.88;;
62401;SDS011;48440;51.224;22.506;2022-09-20T08:25:13;16.75;;;10.48;;
62401;SDS011;48440;51.224;22.506;2022-09-20T08:27:41;14.45;;;9.57;;
62401;SDS011;48440;51.224;22.506;2022-09-20T08:30:12;11.15;;;8.90;;
62401;SDS011;48440;51.224;22.506;2022-09-20T08:33:02;13.07;;;9.05;;
62401;SDS011;48440;51.224;22.506;2022-09-20T08:35:35;10.98;;;8.60;;
62401;SDS011;48440;51.224;22.506;2022-09-20T08:38:01;13.35;;;9.32;;
62401;SDS011;48440;51.224;22.506;2022-09-20T08:43:59;10.68;;;8.02;;
62401;SDS011;48440;51.224;22.506;2022-09-20T08:47:14;12.02;;;7.90;;
62401;SDS011;48440;51.224;22.506;2022-09-20T08:49:48;9.52;;;8.10;;
62401;SDS011;48440;51.224;22.506;2022-09-20T08:52:18;8.68;;;7.53;;
62401;SDS011;48440;51.224;22.506;2022-09-20T08:54:49;10.68;;;7.80;;
62401;SDS011;48440;51.224;22.506;2022-09-20T08:57:16;11.02;;;8.07;;
62401;SDS011;48440;51.224;22.506;2022-09-20T08:59:47;10.43;;;7.82;;
62401;SDS011;48440;51.224;22.506;2022-09-20T09:02:32;10.07;;;7.75;;
62401;SDS011;48440;51.224;22.506;2022-09-20T09:08:34;11.38;;;8.77;;
62401;SDS011;48440;51.224;22.506;2022-09-20T09:11:14;9.65;;;7.57;;
62401;SDS011;48440;51.224;22.506;2022-09-20T09:14:11;8.32;;;7.20;;
62401;SDS011;48440;51.224;22.506;2022-09-20T09:17:06;9.63;;;7.32;;
62401;SDS011;48440;51.224;22.506;2022-09-20T09:19:47;8.98;;;7.63;;
62401;SDS011;48440;51.224;22.506;2022-09-20T09:25:07;8.27;;;7.10;;
62401;SDS011;48440;51.224;22.506;2022-09-20T09:30:26;10.27;;;7.47;;
62401;SDS011;48440;51.224;22.506;2022-09-20T09:35:39;10.52;;;7.50;;
62401;SDS011;48440;51.224;22.506;2022-09-20T09:41:37;11.15;;;8.20;;
62401;SDS011;48440;51.224;22.506;2022-09-20T09:44:04;13.90;;;8.90;;
62401;SDS011;48440;51.224;22.506;2022-09-20T09:46:35;11.25;;;7.82;;
62401;SDS011;48440;51.224;22.506;2022-09-20T09:54:57;11.93;;;7.70;;
62401;SDS011;48440;51.224;22.506;2022-09-20T10:00:19;12.75;;;7.93;;
62401;SDS011;48440;51.224;22.506;2022-09-20T10:22:32;16.10;;;10.05;;
62401;SDS011;48440;51.224;22.506;2022-09-20T10:25:18;52.20;;;41.70;;
62401;SDS011;48440;51.224;22.506;2022-09-20T10:30:36;20.52;;;13.43;;
62401;SDS011;48440;51.224;22.506;2022-09-20T10:33:39;22.17;;;12.70;;
62401;SDS011;48440;51.224;22.506;2022-09-20T10:39:40;25.73;;;15.25;;
62401;SDS011;48440;51.224;22.506;2022-09-20T10:45:22;29.73;;;17.98;;
62401;SDS011;48440;51.224;22.506;2022-09-20T10:50:42;28.63;;;16.95;;
62401;SDS011;48440;51.224;22.506;2022-09-20T10:56:35;27.58;;;15.70;;
62401;SDS011;48440;51.224;22.506;2022-09-20T10:59:22;21.85;;;14.95;;
62401;SDS011;48440;51.224;22.506;2022-09-20T11:12:50;30.20;;;18.40;;
62401;SDS011;48440;51.224;22.506;2022-09-20T11:15:40;32.00;;;19.90;;
62401;SDS011;48440;51.224;22.506;2022-09-20T11:18:36;33.47;;;19.77;;
62401;SDS011;48440;51.224;22.506;2022-09-20T11:21:17;27.50;;;17.38;;
62401;SDS011;48440;51.224;22.506;2022-09-20T11:23:55;24.47;;;15.10;;
62401;SDS011;48440;51.224;22.506;2022-09-20T11:26:33;21.33;;;13.15;;
62401;SDS011;48440;51.224;22.506;2022-09-20T11:29:28;22.58;;;12.55;;
62401;SDS011;48440;51.224;22.506;2022-09-20T11:32:11;18.77;;;12.52;;
62401;SDS011;48440;51.224;22.506;2022-09-20T11:34:53;16.63;;;11.32;;
62401;SDS011;48440;51.224;22.506;2022-09-20T11:37:50;18.10;;;12.00;;
62401;SDS011;48440;51.224;22.506;2022-09-20T11:40:28;16.63;;;10.77;;
62401;SDS011;48440;51.224;22.506;2022-09-20T11:43:03;18.65;;;11.38;;
62401;SDS011;48440;51.224;22.506;2022-09-20T11:45:30;16.50;;;10.88;;
62401;SDS011;48440;51.224;22.506;2022-09-20T11:56:48;8.35;;;6.50;;
62401;SDS011;48440;51.224;22.506;2022-09-20T12:06:19;12.13;;;8.68;;
62401;SDS011;48440;51.224;22.506;2022-09-20T12:09:00;11.98;;;7.70;;
62401;SDS011;48440;51.224;22.506;2022-09-20T12:11:32;9.68;;;7.50;;
62401;SDS011;48440;51.224;22.506;2022-09-20T12:14:03;10.27;;;7.38;;
62401;SDS011;48440;51.224;22.506;2022-09-20T12:16:46;8.65;;;7.28;;
62401;SDS011;48440;51.224;22.506;2022-09-20T12:24:35;8.52;;;5.50;;
62401;SDS011;48440;51.224;22.506;2022-09-20T12:30:18;7.13;;;5.22;;
62401;SDS011;48440;51.224;22.506;2022-09-20T12:32:55;8.10;;;5.70;;
62401;SDS011;48440;51.224;22.506;2022-09-20T12:43:30;8.25;;;6.70;;
62401;SDS011;48440;51.224;22.506;2022-09-20T12:45:58;10.52;;;7.35;;
62401;SDS011;48440;51.224;22.506;2022-09-20T12:48:25;9.10;;;7.43;;
62401;SDS011;48440;51.224;22.506;2022-09-20T12:51:02;9.65;;;8.05;;
62401;SDS011;48440;51.224;22.506;2022-09-20T12:56:38;11.05;;;7.47;;
62401;SDS011;48440;51.224;22.506;2022-09-20T12:59:17;9.25;;;7.28;;
62401;SDS011;48440;51.224;22.506;2022-09-20T13:01:48;10.32;;;7.45;;
62401;SDS011;48440;51.224;22.506;2022-09-20T13:04:50;8.57;;;6.55;;
62401;SDS011;48440;51.224;22.506;2022-09-20T13:07:28;10.48;;;6.60;;
62401;SDS011;48440;51.224;22.506;2022-09-20T13:10:00;8.93;;;5.95;;
62401;SDS011;48440;51.224;22.506;2022-09-20T13:12:41;7.00;;;6.03;;
62401;SDS011;48440;51.224;22.506;2022-09-20T13:15:10;8.07;;;6.20;;
62401;SDS011;48440;51.224;22.506;2022-09-20T13:17:42;7.50;;;6.18;;
62401;SDS011;48440;51.224;22.506;2022-09-20T13:20:14;6.63;;;5.72;;
62401;SDS011;48440;51.224;22.506;2022-09-20T13:22:45;9.52;;;5.78;;
62401;SDS011;48440;51.224;22.506;2022-09-20T13:25:13;6.05;;;5.25;;
62401;SDS011;48440;51.224;22.506;2022-09-20T13:27:50;6.47;;;4.90;;
62401;SDS011;48440;51.224;22.506;2022-09-20T13:30:25;5.47;;;4.43;;
62401;SDS011;48440;51.224;22.506;2022-09-20T13:33:13;4.80;;;4.10;;
62401;SDS011;48440;51.224;22.506;2022-09-20T13:35:42;5.07;;;4.03;;
62401;SDS011;48440;51.224;22.506;2022-09-20T13:38:16;6.82;;;4.40;;
62401;SDS011;48440;51.224;22.506;2022-09-20T13:40:55;4.75;;;3.40;;
62401;SDS011;48440;51.224;22.506;2022-09-20T13:46:08;4.45;;;3.38;;
62401;SDS011;48440;51.224;22.506;2022-09-20T13:48:36;3.88;;;3.13;;
62401;SDS011;48440;51.224;22.506;2022-09-20T13:51:03;4.25;;;3.53;;
62401;SDS011;48440;51.224;22.506;2022-09-20T13:53:49;2.53;;;2.17;;
62401;SDS011;48440;51.224;22.506;2022-09-20T13:58:52;3.17;;;2.00;;
62401;SDS011;48440;51.224;22.506;2022-09-20T14:01:27;3.65;;;2.22;;
62401;SDS011;48440;51.224;22.506;2022-09-20T14:07:11;2.88;;;2.35;;
62401;SDS011;48440;51.224;22.506;2022-09-20T14:09:44;3.15;;;2.53;;
62401;SDS011;48440;51.224;22.506;2022-09-20T14:12:16;4.38;;;2.70;;
62401;SDS011;48440;51.224;22.506;2022-09-20T14:14:45;4.18;;;2.78;;
62401;SDS011;48440;51.224;22.506;2022-09-20T14:17:16;4.20;;;2.97;;
62401;SDS011;48440;51.224;22.506;2022-09-20T14:20:00;4.55;;;3.38;;
62401;SDS011;48440;51.224;22.506;2022-09-20T14:22:27;4.97;;;3.00;;
62401;SDS011;48440;51.224;22.506;2022-09-20T14:27:23;5.05;;;3.60;;
62401;SDS011;48440;51.224;22.506;2022-09-20T14:29:53;4.88;;;3.72;;
62401;SDS011;48440;51.224;22.506;2022-09-20T14:32:23;4.88;;;3.92;;
62401;SDS011;48440;51.224;22.506;2022-09-20T14:35:10;5.65;;;4.45;;
62401;SDS011;48440;51.224;22.506;2022-09-20T14:37:41;6.50;;;4.32;;
62401;SDS011;48440;51.224;22.506;2022-09-20T14:40:24;7.65;;;4.38;;
62401;SDS011;48440;51.224;22.506;2022-09-20T14:43:02;6.32;;;4.30;;
62401;SDS011;48440;51.224;22.506;2022-09-20T14:47:58;6.18;;;4.03;;
62401;SDS011;48440;51.224;22.506;2022-09-20T14:50:34;5.95;;;3.60;;
62401;SDS011;48440;51.224;22.506;2022-09-20T14:58:33;4.00;;;3.00;;
62401;SDS011;48440;51.224;22.506;2022-09-20T15:01:54;5.15;;;3.28;;
62401;SDS011;48440;51.224;22.506;2022-09-20T15:04:38;6.03;;;3.65;;
62401;SDS011;48440;51.224;22.506;2022-09-20T15:07:07;7.13;;;3.85;;
62401;SDS011;48440;51.224;22.506;2022-09-20T15:09:37;4.72;;;3.47;;
62401;SDS011;48440;51.224;22.506;2022-09-20T15:12:10;4.80;;;3.85;;
62401;SDS011;48440;51.224;22.506;2022-09-20T15:14:38;5.88;;;3.80;;
62401;SDS011;48440;51.224;22.506;2022-09-20T15:17:09;5.95;;;3.95;;
62401;SDS011;48440;51.224;22.506;2022-09-20T15:19:42;5.05;;;3.60;;
62401;SDS011;48440;51.224;22.506;2022-09-20T15:22:09;5.45;;;3.72;;
62401;SDS011;48440;51.224;22.506;2022-09-20T15:24:35;9.23;;;4.60;;
62401;SDS011;48440;51.224;22.506;2022-09-20T15:27:02;7.40;;;5.10;;
62401;SDS011;48440;51.224;22.506;2022-09-20T15:29:27;9.20;;;5.60;;
62401;SDS011;48440;51.224;22.506;2022-09-20T15:31:53;9.52;;;5.13;;
62401;SDS011;48440;51.224;22.506;2022-09-20T15:34:18;6.65;;;5.28;;
62401;SDS011;48440;51.224;22.506;2022-09-20T15:36:44;7.05;;;5.20;;
62401;SDS011;48440;51.224;22.506;2022-09-20T15:39:10;5.65;;;3.83;;
62401;SDS011;48440;51.224;22.506;2022-09-20T15:41:36;5.60;;;4.03;;
62401;SDS011;48440;51.224;22.506;2022-09-20T15:44:02;5.10;;;3.65;;
62401;SDS011;48440;51.224;22.506;2022-09-20T15:46:29;6.88;;;4.47;;
62401;SDS011;48440;51.224;22.506;2022-09-20T15:48:56;8.63;;;4.88;;
62401;SDS011;48440;51.224;22.506;2022-09-20T15:51:25;6.03;;;4.22;;
62401;SDS011;48440;51.224;22.506;2022-09-20T15:54:01;7.03;;;4.30;;
62401;SDS011;48440;51.224;22.506;2022-09-20T15:56:31;5.55;;;4.00;;
62401;SDS011;48440;51.224;22.506;2022-09-20T15:59:02;6.32;;;4.18;;
62401;SDS011;48440;51.224;22.506;2022-09-20T16:01:42;5.55;;;3.97;;
62401;SDS011;48440;51.224;22.506;2022-09-20T16:04:16;7.97;;;4.13;;
62401;SDS011;48440;51.224;22.506;2022-09-20T16:06:48;5.50;;;4.30;;
62401;SDS011;48440;51.224;22.506;2022-09-20T16:09:14;7.07;;;4.60;;
62401;SDS011;48440;51.224;22.506;2022-09-20T16:11:40;6.55;;;4.65;;
62401;SDS011;48440;51.224;22.506;2022-09-20T16:14:06;8.02;;;4.32;;
62401;SDS011;48440;51.224;22.506;2022-09-20T16:16:32;7.38;;;5.05;;
62401;SDS011;48440;51.224;22.506;2022-09-20T16:18:59;6.53;;;4.88;;
62401;SDS011;48440;51.224;22.506;2022-09-20T16:21:44;7.57;;;5.60;;
62401;SDS011;48440;51.224;22.506;2022-09-20T16:24:16;12.25;;;6.68;;
62401;SDS011;48440;51.224;22.506;2022-09-20T16:26:42;15.13;;;8.68;;
62401;SDS011;48440;51.224;22.506;2022-09-20T16:29:08;11.27;;;7.57;;
62401;SDS011;48440;51.224;22.506;2022-09-20T16:31:40;11.82;;;7.38;;
62401;SDS011;48440;51.224;22.506;2022-09-20T16:36:57;9.77;;;6.65;;
62401;SDS011;48440;51.224;22.506;2022-09-20T16:39:23;10.55;;;6.60;;
62401;SDS011;48440;51.224;22.506;2022-09-20T16:41:55;8.98;;;6.30;;
62401;SDS011;48440;51.224;22.506;2022-09-20T16:44:28;8.88;;;6.00;;
62401;SDS011;48440;51.224;22.506;2022-09-20T16:46:55;8.70;;;6.53;;
62401;SDS011;48440;51.224;22.506;2022-09-20T16:49:21;7.45;;;6.28;;
62401;SDS011;48440;51.224;22.506;2022-09-20T16:51:48;7.47;;;6.35;;
62401;SDS011;48440;51.224;22.506;2022-09-20T16:54:14;9.43;;;6.28;;
62401;SDS011;48440;51.224;22.506;2022-09-20T16:56:43;8.40;;;6.32;;
62401;SDS011;48440;51.224;22.506;2022-09-20T16:59:10;8.65;;;5.60;;
62401;SDS011;48440;51.224;22.506;2022-09-20T17:01:37;8.23;;;5.90;;
62401;SDS011;48440;51.224;22.506;2022-09-20T17:04:05;6.88;;;5.53;;
62401;SDS011;48440;51.224;22.506;2022-09-20T17:06:32;7.45;;;5.93;;
62401;SDS011;48440;51.224;22.506;2022-09-20T17:09:02;8.18;;;5.93;;
62401;SDS011;48440;51.224;22.506;2022-09-20T17:11:30;9.32;;;7.05;;
62401;SDS011;48440;51.224;22.506;2022-09-20T17:14:08;7.57;;;6.03;;
62401;SDS011;48440;51.224;22.506;2022-09-20T17:16:35;12.15;;;7.45;;
62401;SDS011;48440;51.224;22.506;2022-09-20T17:19:06;9.80;;;7.65;;
62401;SDS011;48440;51.224;22.506;2022-09-20T17:21:37;9.68;;;7.03;;
62401;SDS011;48440;51.224;22.506;2022-09-20T17:24:07;10.75;;;7.55;;
62401;SDS011;48440;51.224;22.506;2022-09-20T17:26:37;10.88;;;7.45;;
62401;SDS011;48440;51.224;22.506;2022-09-20T17:29:05;12.05;;;7.75;;
62401;SDS011;48440;51.224;22.506;2022-09-20T17:31:37;11.32;;;7.63;;
62401;SDS011;48440;51.224;22.506;2022-09-20T17:34:07;10.18;;;7.60;;
62401;SDS011;48440;51.224;22.506;2022-09-20T17:36:44;9.48;;;7.03;;
62401;SDS011;48440;51.224;22.506;2022-09-20T17:42:42;10.10;;;8.02;;
62401;SDS011;48440;51.224;22.506;2022-09-20T17:45:09;10.85;;;8.00;;
62401;SDS011;48440;51.224;22.506;2022-09-20T17:47:35;11.80;;;8.50;;
62401;SDS011;48440;51.224;22.506;2022-09-20T17:50:00;13.48;;;8.23;;
62401;SDS011;48440;51.224;22.506;2022-09-20T17:52:26;12.55;;;9.20;;
62401;SDS011;48440;51.224;22.506;2022-09-20T17:54:52;13.50;;;8.05;;
62401;SDS011;48440;51.224;22.506;2022-09-20T17:57:18;13.55;;;8.95;;
62401;SDS011;48440;51.224;22.506;2022-09-20T17:59:44;13.38;;;9.25;;
62401;SDS011;48440;51.224;22.506;2022-09-20T18:02:10;12.40;;;9.13;;
62401;SDS011;48440;51.224;22.506;2022-09-20T18:04:35;12.40;;;9.02;;
62401;SDS011;48440;51.224;22.506;2022-09-20T18:07:01;14.65;;;9.48;;
62401;SDS011;48440;51.224;22.506;2022-09-20T18:09:27;14.15;;;9.73;;
62401;SDS011;48440;51.224;22.506;2022-09-20T18:11:53;14.30;;;10.15;;
62401;SDS011;48440;51.224;22.506;2022-09-20T18:14:20;13.73;;;9.48;;
62401;SDS011;48440;51.224;22.506;2022-09-20T18:16:50;12.95;;;9.95;;
62401;SDS011;48440;51.224;22.506;2022-09-20T18:28:12;13.75;;;8.80;;
62401;SDS011;48440;51.224;22.506;2022-09-20T18:33:57;10.55;;;7.88;;
62401;SDS011;48440;51.224;22.506;2022-09-20T18:36:33;14.73;;;9.07;;
62401;SDS011;48440;51.224;22.506;2022-09-20T18:43:31;14.00;;;8.60;;
62401;SDS011;48440;51.224;22.506;2022-09-20T18:47:02;13.90;;;7.53;;
62401;SDS011;48440;51.224;22.506;2022-09-20T18:58:56;12.00;;;6.68;;
62401;SDS011;48440;51.224;22.506;2022-09-20T19:04:05;9.50;;;6.75;;
62401;SDS011;48440;51.224;22.506;2022-09-20T19:15:37;12.38;;;7.35;;
62401;SDS011;48440;51.224;22.506;2022-09-20T19:22:04;11.77;;;7.93;;
62401;SDS011;48440;51.224;22.506;2022-09-20T19:30:05;10.80;;;7.15;;
62401;SDS011;48440;51.224;22.506;2022-09-20T19:32:34;10.20;;;6.70;;
62401;SDS011;48440;51.224;22.506;2022-09-20T19:35:02;11.65;;;7.40;;
62401;SDS011;48440;51.224;22.506;2022-09-20T19:37:32;9.30;;;6.13;;
62401;SDS011;48440;51.224;22.506;2022-09-20T19:40:20;12.95;;;6.38;;
62401;SDS011;48440;51.224;22.506;2022-09-20T19:48:50;8.90;;;5.32;;
62401;SDS011;48440;51.224;22.506;2022-09-20T19:51:27;8.90;;;5.35;;
62401;SDS011;48440;51.224;22.506;2022-09-20T19:53:56;7.25;;;5.05;;
62401;SDS011;48440;51.224;22.506;2022-09-20T19:56:26;7.03;;;4.53;;
62401;SDS011;48440;51.224;22.506;2022-09-20T19:58:53;5.72;;;3.85;;
62401;SDS011;48440;51.224;22.506;2022-09-20T20:01:23;6.32;;;4.05;;
62401;SDS011;48440;51.224;22.506;2022-09-20T20:03:50;6.63;;;4.10;;
62401;SDS011;48440;51.224;22.506;2022-09-20T20:09:13;6.75;;;4.30;;
62401;SDS011;48440;51.224;22.506;2022-09-20T20:14:58;7.50;;;4.72;;
62401;SDS011;48440;51.224;22.506;2022-09-20T20:17:27;6.43;;;4.20;;
62401;SDS011;48440;51.224;22.506;2022-09-20T20:25:27;6.78;;;4.88;;
62401;SDS011;48440;51.224;22.506;2022-09-20T20:27:59;8.05;;;5.40;;
62401;SDS011;48440;51.224;22.506;2022-09-20T20:30:33;7.90;;;4.82;;
62401;SDS011;48440;51.224;22.506;2022-09-20T20:36:24;7.28;;;4.30;;
62401;SDS011;48440;51.224;22.506;2022-09-20T20:38:54;7.10;;;4.35;;
62401;SDS011;48440;51.224;22.506;2022-09-20T20:53:56;6.00;;;3.80;;
62401;SDS011;48440;51.224;22.506;2022-09-20T20:59:38;8.02;;;4.60;;
62401;SDS011;48440;51.224;22.506;2022-09-20T21:02:29;6.88;;;4.07;;
62401;SDS011;48440;51.224;22.506;2022-09-20T21:04:57;6.25;;;3.67;;
62401;SDS011;48440;51.224;22.506;2022-09-20T21:07:36;5.68;;;3.83;;
62401;SDS011;48440;51.224;22.506;2022-09-20T21:10:25;5.22;;;3.80;;
62401;SDS011;48440;51.224;22.506;2022-09-20T21:13:19;6.95;;;3.88;;
62401;SDS011;48440;51.224;22.506;2022-09-20T21:18:37;6.40;;;3.75;;
62401;SDS011;48440;51.224;22.506;2022-09-20T21:21:20;6.47;;;3.45;;
62401;SDS011;48440;51.224;22.506;2022-09-20T21:23:51;5.63;;;3.30;;
62401;SDS011;48440;51.224;22.506;2022-09-20T21:26:33;6.47;;;3.03;;
62401;SDS011;48440;51.224;22.506;2022-09-20T21:29:04;4.60;;;3.00;;
62401;SDS011;48440;51.224;22.506;2022-09-20T21:31:45;4.55;;;2.92;;
62401;SDS011;48440;51.224;22.506;2022-09-20T21:34:20;4.53;;;3.22;;
62401;SDS011;48440;51.224;22.506;2022-09-20T21:36:54;5.30;;;3.33;;
62401;SDS011;48440;51.224;22.506;2022-09-20T21:39:46;4.72;;;3.03;;
62401;SDS011;48440;51.224;22.506;2022-09-20T21:42:23;5.22;;;2.78;;
62401;SDS011;48440;51.224;22.506;2022-09-20T21:44:51;4.25;;;2.85;;
62401;SDS011;48440;51.224;22.506;2022-09-20T21:47:40;3.78;;;2.50;;
62401;SDS011;48440;51.224;22.506;2022-09-20T21:50:09;4.40;;;2.67;;
62401;SDS011;48440;51.224;22.506;2022-09-20T21:52:49;4.47;;;2.90;;
62401;SDS011;48440;51.224;22.506;2022-09-20T21:58:34;5.28;;;2.70;;
62401;SDS011;48440;51.224;22.506;2022-09-20T22:01:04;4.13;;;2.65;;
62401;SDS011;48440;51.224;22.506;2022-09-20T22:03:33;4.43;;;2.42;;
62401;SDS011;48440;51.224;22.506;2022-09-20T22:06:03;5.40;;;2.70;;
62401;SDS011;48440;51.224;22.506;2022-09-20T22:08:30;4.43;;;3.00;;
62401;SDS011;48440;51.224;22.506;2022-09-20T22:10:56;5.38;;;2.90;;
62401;SDS011;48440;51.224;22.506;2022-09-20T22:13:22;4.25;;;2.95;;